createdAt,value
2018-11-03T00:00:25.636Z,10.40
2018-11-03T00:01:25.655Z,9.20
2018-11-03T00:02:25.669Z,9.20
2018-11-03T00:03:25.678Z,8.80
2018-11-03T00:04:25.692Z,10.80
2018-11-03T00:05:25.704Z,10.40
2018-11-03T00:06:25.730Z,9.40
2018-11-03T00:07:25.747Z,9.60
2018-11-03T00:08:25.763Z,9.40
2018-11-03T00:09:25.770Z,9.80
2018-11-03T00:10:25.782Z,9.20
2018-11-03T00:11:25.802Z,9.80
2018-11-03T00:12:25.815Z,9.80
2018-11-03T00:13:25.842Z,9.80
2018-11-03T00:14:25.856Z,9.80
2018-11-03T00:15:25.865Z,9.80
2018-11-03T00:16:25.879Z,9.80
2018-11-03T00:17:25.894Z,10.30
2018-11-03T00:18:25.908Z,10.20
2018-11-03T00:19:25.918Z,10.00
2018-11-03T00:20:25.956Z,10.10
2018-11-03T00:21:25.959Z,10.10
2018-11-03T00:22:25.972Z,10.00
2018-11-03T00:23:25.991Z,10.60
2018-11-03T00:24:26.009Z,10.20
2018-11-03T00:25:26.014Z,10.70
2018-11-03T00:26:26.027Z,10.20
2018-11-03T00:27:26.058Z,10.30
2018-11-03T00:28:26.073Z,10.20
2018-11-03T00:29:26.082Z,9.80
2018-11-03T00:30:26.097Z,10.00
2018-11-03T00:31:26.104Z,10.50
2018-11-03T00:32:26.119Z,9.60
2018-11-03T00:33:26.137Z,8.90
2018-11-03T00:34:26.152Z,9.90
2018-11-03T00:35:26.175Z,10.60
2018-11-03T00:36:26.199Z,10.20
2018-11-03T00:37:26.200Z,10.50
2018-11-03T00:38:26.212Z,10.70
2018-11-03T00:39:26.231Z,10.80
2018-11-03T00:40:26.258Z,9.90
2018-11-03T00:41:26.257Z,10.00
2018-11-03T00:42:26.284Z,10.40
2018-11-03T00:43:26.292Z,10.10
2018-11-03T00:44:26.306Z,11.60
2018-11-03T00:45:26.321Z,10.40
2018-11-03T00:46:26.361Z,10.70
2018-11-03T00:47:26.352Z,11.30
2018-11-03T00:48:26.367Z,10.60
2018-11-03T00:49:26.386Z,10.90
2018-11-03T00:50:26.422Z,10.70
2018-11-03T00:51:26.419Z,11.40
2018-11-03T00:52:26.430Z,11.50
2018-11-03T00:53:26.491Z,10.70
2018-11-03T00:54:26.459Z,11.60
2018-11-03T00:55:26.484Z,10.90
2018-11-03T00:56:26.496Z,11.80
2018-11-03T00:57:26.512Z,12.00
2018-11-03T00:58:26.527Z,11.90
2018-11-03T00:59:26.535Z,11.40
2018-11-03T01:00:26.549Z,12.00
2018-11-03T01:01:26.575Z,12.10
2018-11-03T01:02:26.576Z,11.90
2018-11-03T01:03:26.594Z,11.50
2018-11-03T01:04:26.617Z,12.30
2018-11-03T01:05:26.630Z,11.50
2018-11-03T01:06:26.643Z,12.70
2018-11-03T01:07:26.662Z,12.10
2018-11-03T01:08:26.674Z,11.00
2018-11-03T01:09:26.687Z,11.00
2018-11-03T01:10:26.700Z,11.70
2018-11-03T01:11:26.720Z,11.30
2018-11-03T01:12:26.758Z,11.20
2018-11-03T01:13:26.752Z,12.00
2018-11-03T01:14:26.766Z,12.10
2018-11-03T01:15:26.776Z,12.20
2018-11-03T01:16:26.790Z,12.80
2018-11-03T01:17:26.817Z,12.20
2018-11-03T01:18:26.829Z,10.70
2018-11-03T01:19:26.849Z,12.20
2018-11-03T01:20:26.865Z,11.40
2018-11-03T01:21:26.869Z,11.90
2018-11-03T01:22:26.895Z,10.80
2018-11-03T01:23:26.921Z,11.90
2018-11-03T01:24:26.926Z,11.50
2018-11-03T01:25:26.941Z,11.60
2018-11-03T01:26:26.956Z,12.90
2018-11-03T01:27:26.964Z,12.00
2018-11-03T01:28:26.981Z,12.70
2018-11-03T01:29:26.996Z,12.00
2018-11-03T01:30:27.013Z,12.20
2018-11-03T01:31:27.031Z,12.00
2018-11-03T01:32:27.061Z,12.60
2018-11-03T01:33:27.059Z,11.90
2018-11-03T01:34:27.084Z,12.80
2018-11-03T01:35:27.087Z,12.70
2018-11-03T01:36:27.101Z,12.30
2018-11-03T01:37:27.124Z,12.00
2018-11-03T01:38:27.139Z,12.30
2018-11-03T01:39:27.157Z,11.90
2018-11-03T01:40:27.178Z,12.30
2018-11-03T01:41:27.182Z,12.80
2018-11-03T01:42:27.196Z,13.00
2018-11-03T01:43:27.203Z,12.50
2018-11-03T01:44:27.231Z,12.50
2018-11-03T01:45:27.249Z,12.90
2018-11-03T01:46:27.263Z,12.40
2018-11-03T01:47:27.273Z,13.00
2018-11-03T01:48:27.287Z,12.30
2018-11-03T01:49:27.298Z,12.00
2018-11-03T01:50:27.324Z,11.90
2018-11-03T01:51:27.341Z,12.10
2018-11-03T01:52:27.355Z,13.00
2018-11-03T01:53:27.366Z,14.10
2018-11-03T01:54:27.380Z,14.20
2018-11-03T01:55:27.400Z,14.00
2018-11-03T01:56:27.411Z,13.30
2018-11-03T01:57:27.435Z,13.30
2018-11-03T01:58:27.449Z,13.20
2018-11-03T01:59:27.458Z,13.70
2018-11-03T02:00:27.472Z,14.10
2018-11-03T02:01:27.493Z,14.50
2018-11-03T02:02:27.505Z,14.30
2018-11-03T02:03:27.514Z,14.00
2018-11-03T02:04:27.539Z,14.00
2018-11-03T02:05:27.554Z,14.00
2018-11-03T02:06:27.568Z,13.90
2018-11-03T02:07:27.585Z,14.00
2018-11-03T02:08:27.599Z,13.80
2018-11-03T02:09:27.608Z,14.80
2018-11-03T02:10:27.620Z,14.60
2018-11-03T02:11:27.650Z,14.60
2018-11-03T02:12:27.664Z,14.70
2018-11-03T02:13:27.679Z,14.20
2018-11-03T02:14:27.692Z,14.80
2018-11-03T02:15:27.702Z,14.00
2018-11-03T02:16:27.716Z,13.00
2018-11-03T02:17:27.733Z,13.90
2018-11-03T02:18:27.764Z,14.60
2018-11-03T02:19:27.768Z,13.90
2018-11-03T02:20:27.783Z,13.20
2018-11-03T02:21:27.807Z,13.60
2018-11-03T02:22:27.808Z,14.60
2018-11-03T02:23:27.825Z,14.30
2018-11-03T02:24:27.839Z,14.80
2018-11-03T02:25:27.863Z,15.60
2018-11-03T02:26:27.877Z,15.40
2018-11-03T02:27:27.893Z,15.80
2018-11-03T02:28:27.908Z,14.50
2018-11-03T02:29:27.959Z,14.70
2018-11-03T02:30:27.933Z,15.10
2018-11-03T02:31:27.942Z,15.30
2018-11-03T02:32:27.968Z,15.70
2018-11-03T02:33:27.986Z,15.30
2018-11-03T02:34:27.999Z,15.40
2018-11-03T02:35:28.013Z,15.70
2018-11-03T02:36:28.022Z,16.00
2018-11-03T02:37:28.037Z,16.80
2018-11-03T02:38:28.051Z,14.90
2018-11-03T02:39:28.082Z,15.00
2018-11-03T02:40:28.099Z,15.60
2018-11-03T02:41:28.101Z,16.10
2018-11-03T02:42:28.120Z,16.40
2018-11-03T02:43:28.175Z,16.60
2018-11-03T02:44:28.146Z,17.10
2018-11-03T02:45:28.174Z,16.20
2018-11-03T02:46:28.188Z,16.00
2018-11-03T02:47:28.197Z,16.40
2018-11-03T02:48:28.213Z,16.20
2018-11-03T02:49:28.226Z,15.40
2018-11-03T02:50:28.238Z,16.10
2018-11-03T02:51:28.256Z,15.90
2018-11-03T02:52:28.281Z,16.80
2018-11-03T02:53:28.294Z,17.80
2018-11-03T02:54:28.341Z,18.00
2018-11-03T02:55:28.317Z,17.40
2018-11-03T02:56:28.329Z,16.90
2018-11-03T02:57:28.350Z,18.00
2018-11-03T02:58:28.405Z,17.60
2018-11-03T02:59:28.384Z,16.30
2018-11-03T03:00:28.403Z,16.30
2018-11-03T03:01:28.410Z,17.00
2018-11-03T03:02:28.423Z,16.60
2018-11-03T03:03:28.440Z,16.70
2018-11-03T03:04:28.463Z,16.60
2018-11-03T03:05:28.476Z,16.40
2018-11-03T03:06:28.490Z,16.80
2018-11-03T03:07:28.508Z,18.00
2018-11-03T03:08:28.521Z,18.40
2018-11-03T03:09:28.537Z,16.30
2018-11-03T03:10:28.550Z,18.40
2018-11-03T03:11:28.565Z,17.20
2018-11-03T03:12:28.586Z,16.90
2018-11-03T03:13:28.602Z,16.70
2018-11-03T03:14:28.615Z,17.10
2018-11-03T03:15:28.624Z,17.70
2018-11-03T03:16:28.638Z,16.80
2018-11-03T03:17:28.656Z,17.80
2018-11-03T03:18:28.668Z,18.10
2018-11-03T03:19:28.697Z,17.10
2018-11-03T03:20:28.710Z,17.00
2018-11-03T03:21:28.720Z,18.00
2018-11-03T03:22:28.733Z,17.60
2018-11-03T03:23:28.752Z,17.70
2018-11-03T03:24:28.764Z,16.80
2018-11-03T03:25:28.779Z,18.20
2018-11-03T03:26:28.803Z,16.20
2018-11-03T03:27:28.811Z,16.00
2018-11-03T03:28:28.826Z,17.00
2018-11-03T03:29:28.856Z,16.10
2018-11-03T03:30:28.858Z,17.10
2018-11-03T03:31:28.867Z,16.70
2018-11-03T03:32:28.899Z,16.90
2018-11-03T03:33:28.906Z,16.60
2018-11-03T03:34:28.918Z,16.70
2018-11-03T03:35:28.938Z,16.90
2018-11-03T03:36:28.949Z,17.70
2018-11-03T03:37:28.960Z,17.60
2018-11-03T03:38:28.973Z,16.90
2018-11-03T03:39:28.994Z,16.80
2018-11-03T03:40:29.017Z,16.50
2018-11-03T03:41:29.044Z,17.00
2018-11-03T03:42:29.046Z,15.90
2018-11-03T03:43:29.055Z,16.70
2018-11-03T03:44:29.071Z,16.00
2018-11-03T03:45:29.085Z,16.10
2018-11-03T03:46:29.099Z,16.50
2018-11-03T03:47:29.107Z,16.60
2018-11-03T03:48:29.132Z,16.20
2018-11-03T03:49:29.149Z,15.20
2018-11-03T03:50:29.162Z,16.00
2018-11-03T03:51:29.183Z,15.30
2018-11-03T03:52:29.193Z,16.40
2018-11-03T03:53:29.202Z,16.50
2018-11-03T03:54:29.215Z,15.60
2018-11-03T03:55:29.244Z,16.10
2018-11-03T03:56:29.258Z,15.30
2018-11-03T03:57:29.290Z,15.80
2018-11-03T03:58:29.288Z,15.70
2018-11-03T03:59:29.298Z,15.30
2018-11-03T04:00:29.322Z,15.70
2018-11-03T04:01:29.325Z,16.20
2018-11-03T04:02:29.339Z,16.80
2018-11-03T04:03:29.363Z,16.10
2018-11-03T04:04:29.375Z,16.50
2018-11-03T04:05:29.391Z,16.70
2018-11-03T04:06:29.445Z,17.30
2018-11-03T04:07:29.421Z,16.50
2018-11-03T04:08:29.435Z,16.70
2018-11-03T04:09:29.446Z,15.70
2018-11-03T04:10:29.459Z,15.90
2018-11-03T04:11:29.488Z,16.40
2018-11-03T04:12:29.502Z,16.00
2018-11-03T04:13:29.513Z,16.60
2018-11-03T04:14:29.527Z,16.20
2018-11-03T04:15:29.538Z,17.00
2018-11-03T04:16:29.551Z,15.50
2018-11-03T04:17:29.569Z,16.10
2018-11-03T04:18:29.584Z,15.60
2018-11-03T04:19:29.605Z,15.50
2018-11-03T04:20:29.619Z,16.40
2018-11-03T04:21:29.631Z,16.30
2018-11-03T04:22:29.644Z,15.50
2018-11-03T04:23:29.662Z,16.30
2018-11-03T04:24:29.675Z,16.50
2018-11-03T04:25:29.691Z,16.20
2018-11-03T04:26:29.698Z,17.40
2018-11-03T04:27:29.740Z,16.40
2018-11-03T04:28:29.743Z,17.80
2018-11-03T04:29:29.759Z,16.90
2018-11-03T04:30:29.771Z,17.70
2018-11-03T04:31:29.779Z,17.00
2018-11-03T04:32:29.794Z,18.30
2018-11-03T04:33:29.808Z,17.30
2018-11-03T04:34:29.824Z,17.30
2018-11-03T04:35:29.845Z,16.00
2018-11-03T04:36:29.857Z,17.20
2018-11-03T04:37:29.879Z,17.10
2018-11-03T04:38:29.887Z,16.70
2018-11-03T04:39:29.907Z,15.90
2018-11-03T04:40:29.931Z,16.10
2018-11-03T04:41:29.928Z,15.90
2018-11-03T04:42:29.941Z,15.60
2018-11-03T04:43:29.996Z,16.30
2018-11-03T04:44:29.985Z,15.70
2018-11-03T04:45:30.086Z,16.20
2018-11-03T04:46:30.015Z,15.80
2018-11-03T04:47:30.023Z,16.00
2018-11-03T04:48:30.034Z,16.60
2018-11-03T04:49:30.052Z,15.90
2018-11-03T04:50:30.066Z,16.50
2018-11-03T04:51:30.077Z,16.30
2018-11-03T04:52:30.145Z,17.50
2018-11-03T04:53:30.120Z,15.90
2018-11-03T04:54:30.127Z,17.60
2018-11-03T04:55:30.147Z,16.60
2018-11-03T04:56:30.157Z,15.90
2018-11-03T04:57:30.172Z,17.10
2018-11-03T04:58:30.189Z,16.20
2018-11-03T04:59:30.197Z,16.10
2018-11-03T05:00:30.220Z,16.70
2018-11-03T05:01:30.236Z,17.20
2018-11-03T05:02:30.250Z,16.30
2018-11-03T05:03:30.273Z,16.20
2018-11-03T05:04:30.281Z,16.40
2018-11-03T05:05:30.288Z,16.10
2018-11-03T05:06:30.301Z,16.10
2018-11-03T05:07:30.320Z,16.40
2018-11-03T05:08:30.334Z,16.00
2018-11-03T05:09:30.361Z,15.90
2018-11-03T05:10:30.414Z,16.70
2018-11-03T05:11:30.386Z,16.50
2018-11-03T05:12:30.399Z,16.40
2018-11-03T05:13:30.416Z,16.30
2018-11-03T05:14:30.428Z,16.10
2018-11-03T05:15:30.439Z,16.40
2018-11-03T05:16:30.451Z,16.10
2018-11-03T05:17:30.464Z,16.40
2018-11-03T05:18:30.491Z,15.90
2018-11-03T05:19:30.506Z,15.70
2018-11-03T05:20:30.520Z,16.50
2018-11-03T05:21:30.532Z,16.00
2018-11-03T05:22:30.546Z,16.30
2018-11-03T05:23:30.562Z,15.50
2018-11-03T05:24:30.577Z,16.10
2018-11-03T05:25:30.589Z,16.80
2018-11-03T05:26:30.603Z,15.50
2018-11-03T05:27:30.611Z,16.50
2018-11-03T05:28:30.684Z,16.60
2018-11-03T05:29:30.655Z,16.60
2018-11-03T05:30:30.669Z,16.10
2018-11-03T05:31:30.678Z,16.50
2018-11-03T05:32:30.692Z,16.20
2018-11-03T05:33:30.707Z,16.70
2018-11-03T05:34:30.723Z,16.00
2018-11-03T05:35:30.738Z,14.70
2018-11-03T05:36:30.751Z,15.60
2018-11-03T05:37:30.770Z,15.60
2018-11-03T05:38:30.784Z,16.70
2018-11-03T05:39:30.801Z,15.90
2018-11-03T05:40:30.816Z,16.10
2018-11-03T05:41:30.831Z,15.50
2018-11-03T05:42:30.845Z,15.40
2018-11-03T05:43:30.858Z,16.50
2018-11-03T05:44:30.869Z,16.80
2018-11-03T05:45:30.885Z,16.10
2018-11-03T05:46:30.956Z,16.40
2018-11-03T05:47:30.922Z,15.10
2018-11-03T05:48:30.935Z,16.20
2018-11-03T05:49:30.946Z,15.50
2018-11-03T05:50:30.959Z,16.60
2018-11-03T05:51:30.977Z,16.00
2018-11-03T05:52:30.991Z,16.00
2018-11-03T05:53:31.003Z,16.80
2018-11-03T05:54:31.028Z,16.80
2018-11-03T05:55:31.034Z,16.60
2018-11-03T05:56:31.060Z,16.20
2018-11-03T05:57:31.095Z,16.70
2018-11-03T05:58:31.085Z,15.00
2018-11-03T05:59:31.095Z,17.00
2018-11-03T06:00:31.108Z,17.30
2018-11-03T06:01:31.127Z,17.30
2018-11-03T06:02:31.142Z,16.30
2018-11-03T06:03:31.150Z,16.80
2018-11-03T06:04:31.177Z,17.10
2018-11-03T06:05:31.188Z,17.30
2018-11-03T06:06:31.215Z,17.20
2018-11-03T06:07:31.220Z,16.40
2018-11-03T06:08:31.234Z,15.80
2018-11-03T06:09:31.245Z,15.50
2018-11-03T06:10:31.258Z,16.20
2018-11-03T06:11:31.280Z,16.30
2018-11-03T06:12:31.302Z,16.10
2018-11-03T06:13:31.313Z,15.70
2018-11-03T06:14:31.327Z,17.00
2018-11-03T06:15:31.401Z,16.80
2018-11-03T06:16:31.349Z,16.80
2018-11-03T06:17:31.366Z,16.10
2018-11-03T06:18:31.380Z,17.10
2018-11-03T06:19:31.389Z,17.30
2018-11-03T06:20:31.415Z,17.00
2018-11-03T06:21:31.434Z,16.50
2018-11-03T06:22:31.504Z,18.30
2018-11-03T06:23:31.533Z,17.90
2018-11-03T06:24:31.477Z,18.80
2018-11-03T06:25:31.484Z,16.90
2018-11-03T06:26:31.497Z,17.70
2018-11-03T06:27:31.515Z,17.60
2018-11-03T06:28:31.529Z,17.90
2018-11-03T06:29:31.556Z,17.50
2018-11-03T06:30:31.573Z,17.20
2018-11-03T06:31:31.583Z,17.00
2018-11-03T06:32:31.626Z,17.30
2018-11-03T06:33:31.610Z,17.30
2018-11-03T06:34:31.625Z,17.80
2018-11-03T06:35:31.633Z,17.90
2018-11-03T06:36:31.659Z,17.00
2018-11-03T06:37:31.672Z,17.30
2018-11-03T06:38:31.684Z,17.40
2018-11-03T06:39:31.702Z,18.00
2018-11-03T06:40:31.728Z,16.70
2018-11-03T06:41:31.728Z,17.20
2018-11-03T06:42:31.740Z,17.90
2018-11-03T06:43:31.759Z,19.20
2018-11-03T06:44:31.785Z,18.20
2018-11-03T06:45:31.795Z,18.40
2018-11-03T06:46:31.852Z,17.80
2018-11-03T06:47:31.977Z,18.80
2018-11-03T06:48:31.834Z,18.70
2018-11-03T06:49:31.849Z,18.90
2018-11-03T06:50:31.864Z,18.70
2018-11-03T06:51:31.877Z,18.20
2018-11-03T06:52:31.898Z,17.80
2018-11-03T06:53:31.914Z,18.90
2018-11-03T06:54:31.927Z,18.80
2018-11-03T06:55:31.946Z,18.10
2018-11-03T06:56:31.990Z,18.90
2018-11-03T06:57:31.984Z,18.50
2018-11-03T06:58:31.979Z,18.20
2018-11-03T06:59:32.010Z,18.70
2018-11-03T07:00:32.024Z,17.00
2018-11-03T07:01:32.039Z,17.70
2018-11-03T07:02:32.053Z,17.10
2018-11-03T07:03:32.061Z,17.90
2018-11-03T07:04:32.076Z,16.90
2018-11-03T07:05:32.102Z,16.90
2018-11-03T07:06:32.139Z,17.30
2018-11-03T07:07:32.151Z,16.30
2018-11-03T07:08:32.146Z,16.30
2018-11-03T07:09:32.158Z,16.20
2018-11-03T07:10:32.171Z,16.00
2018-11-03T07:11:32.274Z,16.10
2018-11-03T07:12:32.410Z,16.90
2018-11-03T07:13:32.226Z,15.80
2018-11-03T07:14:32.240Z,16.10
2018-11-03T07:15:32.250Z,17.10
2018-11-03T07:16:32.264Z,18.10
2018-11-03T07:17:32.277Z,16.90
2018-11-03T07:18:32.306Z,16.90
2018-11-03T07:19:32.318Z,16.80
2018-11-03T07:20:32.344Z,16.80
2018-11-03T07:21:32.390Z,16.30
2018-11-03T07:22:32.405Z,17.00
2018-11-03T07:23:32.373Z,16.70
2018-11-03T07:24:32.398Z,16.90
2018-11-03T07:25:32.414Z,16.90
2018-11-03T07:26:32.428Z,17.60
2018-11-03T07:27:32.449Z,16.80
2018-11-03T07:28:32.450Z,16.30
2018-11-03T07:29:32.540Z,16.50
2018-11-03T07:30:32.492Z,16.50
2018-11-03T07:31:32.502Z,17.50
2018-11-03T07:32:32.514Z,15.90
2018-11-03T07:33:32.543Z,16.00
2018-11-03T07:34:32.543Z,16.70
2018-11-03T07:35:32.573Z,16.30
2018-11-03T07:36:32.588Z,16.70
2018-11-03T07:37:32.602Z,15.40
2018-11-03T07:38:32.614Z,14.80
2018-11-03T07:39:32.642Z,14.60
2018-11-03T07:40:32.654Z,14.60
2018-11-03T07:41:32.778Z,14.80
2018-11-03T07:42:32.697Z,15.90
2018-11-03T07:43:32.690Z,15.10
2018-11-03T07:44:32.702Z,15.30
2018-11-03T07:45:32.766Z,15.00
2018-11-03T07:46:32.748Z,15.80
2018-11-03T07:47:32.769Z,16.00
2018-11-03T07:48:32.849Z,14.90
2018-11-03T07:49:32.783Z,15.50
2018-11-03T07:50:32.808Z,15.40
2018-11-03T07:51:32.826Z,14.80
2018-11-03T07:52:32.839Z,15.20
2018-11-03T07:53:32.854Z,15.70
2018-11-03T07:54:32.899Z,14.60
2018-11-03T07:55:32.892Z,14.50
2018-11-03T07:56:32.907Z,15.50
2018-11-03T07:57:32.921Z,15.00
2018-11-03T07:58:32.955Z,14.50
2018-11-03T07:59:32.957Z,15.10
2018-11-03T08:00:33.065Z,14.80
2018-11-03T08:01:32.987Z,14.70
2018-11-03T08:02:33.002Z,15.00
2018-11-03T08:03:33.021Z,14.50
2018-11-03T08:04:33.048Z,15.20
2018-11-03T08:05:33.050Z,14.80
2018-11-03T08:06:33.064Z,16.10
2018-11-03T08:07:33.096Z,15.70
2018-11-03T08:08:33.108Z,15.40
2018-11-03T08:09:33.116Z,14.80
2018-11-03T08:10:33.129Z,15.20
2018-11-03T08:11:33.159Z,14.50
2018-11-03T08:12:33.173Z,15.00
2018-11-03T08:13:33.212Z,15.60
2018-11-03T08:14:33.213Z,15.30
2018-11-03T08:15:33.260Z,15.40
2018-11-03T08:16:33.237Z,15.10
2018-11-03T08:17:33.253Z,16.20
2018-11-03T08:18:33.265Z,15.20
2018-11-03T08:19:33.301Z,15.10
2018-11-03T08:20:33.302Z,15.10
2018-11-03T08:21:33.317Z,15.20
2018-11-03T08:22:33.331Z,16.00
2018-11-03T08:23:33.361Z,14.60
2018-11-03T08:24:33.374Z,15.30
2018-11-03T08:25:33.384Z,14.40
2018-11-03T08:26:33.397Z,14.80
2018-11-03T08:27:33.440Z,14.50
2018-11-03T08:28:33.442Z,14.80
2018-11-03T08:29:33.453Z,16.00
2018-11-03T08:30:33.471Z,14.70
2018-11-03T08:31:33.570Z,14.40
2018-11-03T08:32:33.500Z,14.50
2018-11-03T08:33:33.524Z,15.10
2018-11-03T08:34:33.536Z,16.20
2018-11-03T08:35:33.556Z,15.50
2018-11-03T08:36:33.600Z,15.00
2018-11-03T08:37:33.582Z,15.20
2018-11-03T08:38:33.614Z,14.80
2018-11-03T08:39:33.661Z,15.60
2018-11-03T08:40:33.638Z,15.10
2018-11-03T08:41:33.649Z,14.30
2018-11-03T08:42:33.674Z,14.80
2018-11-03T08:43:33.691Z,14.20
2018-11-03T08:44:33.706Z,14.80
2018-11-03T08:45:33.734Z,15.20
2018-11-03T08:46:33.746Z,15.30
2018-11-03T08:47:33.758Z,15.20
2018-11-03T08:48:33.787Z,15.50
2018-11-03T08:49:33.798Z,16.20
2018-11-03T08:50:33.812Z,15.50
2018-11-03T08:51:33.821Z,14.90
2018-11-03T08:52:33.849Z,15.70
2018-11-03T08:53:33.864Z,15.50
2018-11-03T08:54:33.876Z,14.60
2018-11-03T08:55:33.895Z,14.30
2018-11-03T08:56:33.923Z,14.80
2018-11-03T08:57:33.951Z,14.90
2018-11-03T08:58:33.943Z,14.80
2018-11-03T08:59:34.040Z,15.10
2018-11-03T09:00:33.986Z,15.60
2018-11-03T09:01:34.000Z,14.70
2018-11-03T09:02:34.012Z,15.00
2018-11-03T09:03:34.036Z,14.70
2018-11-03T09:04:34.048Z,15.00
2018-11-03T09:05:34.067Z,14.70
2018-11-03T09:06:34.106Z,14.50
2018-11-03T09:07:34.102Z,13.50
2018-11-03T09:08:34.117Z,14.50
2018-11-03T09:09:34.143Z,13.80
2018-11-03T09:10:34.154Z,15.50
2018-11-03T09:11:34.170Z,14.60
2018-11-03T09:12:34.197Z,14.90
2018-11-03T09:13:34.210Z,15.60
2018-11-03T09:14:34.292Z,15.00
2018-11-03T09:15:34.252Z,15.60
2018-11-03T09:16:34.266Z,14.70
2018-11-03T09:17:34.276Z,15.00
2018-11-03T09:18:34.303Z,14.90
2018-11-03T09:19:34.313Z,15.00
2018-11-03T09:20:34.326Z,14.50
2018-11-03T09:21:34.363Z,13.70
2018-11-03T09:22:34.407Z,15.10
2018-11-03T09:23:34.381Z,14.90
2018-11-03T09:24:34.407Z,15.70
2018-11-03T09:25:34.419Z,15.80
2018-11-03T09:26:34.445Z,14.70
2018-11-03T09:27:34.462Z,14.50
2018-11-03T09:28:34.477Z,15.20
2018-11-03T09:29:34.487Z,13.90
2018-11-03T09:30:34.511Z,15.20
2018-11-03T09:31:34.560Z,15.40
2018-11-03T09:32:34.542Z,15.30
2018-11-03T09:33:34.583Z,15.40
2018-11-03T09:34:34.642Z,15.80
2018-11-03T09:35:34.593Z,15.40
2018-11-03T09:36:34.620Z,15.00
2018-11-03T09:37:34.635Z,15.00
2018-11-03T09:38:34.709Z,15.10
2018-11-03T09:39:34.671Z,14.70
2018-11-03T09:40:34.684Z,15.60
2018-11-03T09:41:34.699Z,15.70
2018-11-03T09:42:34.734Z,14.70
2018-11-03T09:43:34.775Z,15.20
2018-11-03T09:44:34.756Z,14.80
2018-11-03T09:45:34.778Z,15.80
2018-11-03T09:46:34.793Z,14.60
2018-11-03T09:47:34.810Z,14.90
2018-11-03T09:48:34.836Z,15.30
2018-11-03T09:49:34.848Z,15.70
2018-11-03T09:50:34.928Z,14.90
2018-11-03T09:51:34.885Z,15.00
2018-11-03T09:52:34.897Z,15.00
2018-11-03T09:53:34.933Z,15.30
2018-11-03T09:54:34.943Z,14.80
2018-11-03T09:55:34.952Z,15.30
2018-11-03T09:56:35.035Z,14.50
2018-11-03T09:57:34.989Z,15.70
2018-11-03T09:58:35.007Z,14.40
2018-11-03T09:59:35.034Z,14.90
2018-11-03T10:00:35.060Z,15.10
2018-11-03T10:01:35.068Z,15.40
2018-11-03T10:02:35.083Z,14.60
2018-11-03T10:03:35.101Z,14.90
2018-11-03T10:04:35.126Z,14.50
2018-11-03T10:05:35.142Z,14.10
2018-11-03T10:06:35.228Z,14.90
2018-11-03T10:07:35.177Z,13.40
2018-11-03T10:08:35.191Z,13.70
2018-11-03T10:09:35.238Z,14.30
2018-11-03T10:10:35.233Z,13.30
2018-11-03T10:11:35.254Z,13.80
2018-11-03T10:12:35.268Z,13.80
2018-11-03T10:13:35.286Z,14.50
2018-11-03T10:14:35.323Z,14.60
2018-11-03T10:15:35.340Z,13.70
2018-11-03T10:16:35.354Z,13.30
2018-11-03T10:17:35.360Z,13.80
2018-11-03T10:18:35.422Z,13.30
2018-11-03T10:19:35.405Z,13.60
2018-11-03T10:20:35.419Z,14.00
2018-11-03T10:21:35.448Z,14.50
2018-11-03T10:22:35.465Z,13.80
2018-11-03T10:23:35.482Z,13.50
2018-11-03T10:24:35.496Z,14.00
2018-11-03T10:25:35.523Z,12.90
2018-11-03T10:26:35.539Z,13.30
2018-11-03T10:27:35.546Z,12.40
2018-11-03T10:28:35.586Z,12.10
2018-11-03T10:29:35.588Z,13.00
2018-11-03T10:30:35.617Z,12.90
2018-11-03T10:31:35.631Z,12.80
2018-11-03T10:32:35.657Z,12.50
2018-11-03T10:33:35.737Z,11.40
2018-11-03T10:34:35.694Z,11.30
2018-11-03T10:35:35.709Z,12.00
2018-11-03T10:36:35.728Z,11.40
2018-11-03T10:37:35.758Z,11.70
2018-11-03T10:38:35.767Z,12.50
2018-11-03T10:39:35.783Z,11.30
2018-11-03T10:40:35.797Z,12.40
2018-11-03T10:41:35.817Z,11.80
2018-11-03T10:42:35.842Z,11.80
2018-11-03T10:43:35.852Z,12.00
2018-11-03T10:44:35.879Z,11.40
2018-11-03T10:45:35.891Z,11.40
2018-11-03T10:46:35.916Z,11.30
2018-11-03T10:47:35.934Z,11.00
2018-11-03T10:48:35.947Z,11.30
2018-11-03T10:49:35.971Z,11.70
2018-11-03T10:50:35.982Z,11.70
2018-11-03T10:51:36.013Z,11.10
2018-11-03T10:52:36.027Z,10.30
2018-11-03T10:53:36.181Z,11.60
2018-11-03T10:54:36.069Z,11.20
2018-11-03T10:55:36.076Z,10.80
2018-11-03T10:56:36.124Z,10.80
2018-11-03T10:57:36.121Z,11.00
2018-11-03T10:58:36.146Z,10.80
2018-11-03T10:59:36.166Z,10.80
2018-11-03T11:00:36.181Z,10.50
2018-11-03T11:01:36.196Z,10.60
2018-11-03T11:02:36.209Z,10.50
2018-11-03T11:03:36.315Z,10.80
2018-11-03T11:04:36.253Z,9.40
2018-11-03T11:05:36.277Z,10.00
2018-11-03T11:06:36.300Z,10.50
2018-11-03T11:07:36.317Z,10.00
2018-11-03T11:08:36.331Z,11.20
2018-11-03T11:09:36.355Z,10.60
2018-11-03T11:10:36.369Z,10.10
2018-11-03T11:11:36.392Z,10.30
2018-11-03T11:12:36.404Z,9.60
2018-11-03T11:13:36.425Z,9.80
2018-11-03T11:14:36.450Z,9.50
2018-11-03T11:15:36.497Z,9.00
2018-11-03T11:16:36.515Z,9.40
2018-11-03T11:17:36.497Z,10.10
2018-11-03T11:18:36.523Z,8.50
2018-11-03T11:19:36.552Z,8.10
2018-11-03T11:20:36.567Z,8.50
2018-11-03T11:21:36.580Z,8.40
2018-11-03T11:22:36.606Z,8.30
2018-11-03T11:23:36.683Z,8.40
2018-11-03T11:24:36.657Z,7.60
2018-11-03T11:25:36.656Z,8.00
2018-11-03T11:26:36.674Z,8.00
2018-11-03T11:27:36.701Z,8.40
2018-11-03T11:28:36.713Z,8.00
2018-11-03T11:29:36.734Z,7.50
2018-11-03T11:30:36.751Z,8.20
2018-11-03T11:31:36.835Z,7.80
2018-11-03T11:32:36.827Z,7.90
2018-11-03T11:33:36.823Z,8.40
2018-11-03T11:34:36.834Z,8.70
2018-11-03T11:35:36.843Z,8.90
2018-11-03T11:36:36.868Z,8.30
2018-11-03T11:37:37.061Z,9.40
2018-11-03T11:38:36.922Z,8.80
2018-11-03T11:39:36.935Z,8.50
2018-11-03T11:40:36.947Z,8.60
2018-11-03T11:41:36.960Z,9.00
2018-11-03T11:42:36.973Z,8.10
2018-11-03T11:43:37.003Z,8.20
2018-11-03T11:44:37.017Z,8.40
2018-11-03T11:45:37.041Z,8.80
2018-11-03T11:46:37.055Z,8.50
2018-11-03T11:47:37.080Z,9.20
2018-11-03T11:48:37.099Z,9.30
2018-11-03T11:49:37.109Z,8.90
2018-11-03T11:50:37.134Z,8.80
2018-11-03T11:51:37.149Z,8.30
2018-11-03T11:52:37.171Z,8.80
2018-11-03T11:53:37.188Z,9.30
2018-11-03T11:54:37.203Z,9.00
2018-11-03T11:55:37.228Z,8.70
2018-11-03T11:56:37.238Z,9.00
2018-11-03T11:57:37.267Z,8.70
2018-11-03T11:58:37.279Z,8.80
2018-11-03T11:59:37.311Z,8.60
2018-11-03T12:00:37.363Z,9.50
2018-11-03T12:01:37.345Z,9.30
2018-11-03T12:02:37.452Z,9.20
2018-11-03T12:03:37.377Z,9.60
2018-11-03T12:04:37.401Z,9.30
2018-11-03T12:05:37.416Z,8.50
2018-11-03T12:06:37.443Z,9.00
2018-11-03T12:07:37.451Z,7.60
2018-11-03T12:08:37.509Z,8.40
2018-11-03T12:09:37.496Z,7.40
2018-11-03T12:10:37.509Z,8.00
2018-11-03T12:11:37.530Z,8.20
2018-11-03T12:12:37.544Z,8.00
2018-11-03T12:13:37.568Z,7.60
2018-11-03T12:14:37.581Z,8.00
2018-11-03T12:15:37.611Z,7.50
2018-11-03T12:16:37.626Z,7.70
2018-11-03T12:17:37.663Z,7.30
2018-11-03T12:18:37.662Z,7.60
2018-11-03T12:19:37.709Z,7.80
2018-11-03T12:20:37.708Z,6.90
2018-11-03T12:21:37.730Z,7.40
2018-11-03T12:22:37.744Z,7.20
2018-11-03T12:23:37.769Z,7.30
2018-11-03T12:24:37.781Z,8.10
2018-11-03T12:25:37.890Z,7.70
2018-11-03T12:26:37.840Z,8.10
2018-11-03T12:27:37.851Z,7.80
2018-11-03T12:28:37.860Z,7.60
2018-11-03T12:29:37.872Z,6.60
2018-11-03T12:30:37.900Z,7.10
2018-11-03T12:31:37.915Z,6.80
2018-11-03T12:32:37.942Z,6.80
2018-11-03T12:33:37.953Z,7.10
2018-11-03T12:34:37.981Z,7.10
2018-11-03T12:35:37.998Z,6.40
2018-11-03T12:36:38.024Z,7.00
2018-11-03T12:37:38.034Z,6.70
2018-11-03T12:38:38.063Z,5.90
2018-11-03T12:39:38.081Z,5.70
2018-11-03T12:40:38.130Z,5.80
2018-11-03T12:41:38.113Z,5.70
2018-11-03T12:42:38.139Z,5.10
2018-11-03T12:43:38.149Z,5.10
2018-11-03T12:44:38.175Z,5.30
2018-11-03T12:45:38.191Z,5.50
2018-11-03T12:46:38.217Z,5.50
2018-11-03T12:47:38.234Z,5.40
2018-11-03T12:48:38.260Z,6.70
2018-11-03T12:49:38.268Z,6.70
2018-11-03T12:50:38.293Z,6.00
2018-11-03T12:51:38.324Z,6.00
2018-11-03T12:52:38.337Z,6.00
2018-11-03T12:53:38.354Z,5.50
2018-11-03T12:54:38.378Z,5.40
2018-11-03T12:55:38.391Z,6.30
2018-11-03T12:56:38.414Z,6.20